메인 페이지
METAR-TAF:

METAR-TAF

공항 :

나소, 바하마

위도: 25-03N, 경도: 077-28W, 고도: 3m

현재 날씨관측

예보는 41분 전, 10:00시(UTC)에 발표되었습니다.
무풍
온도 24°C
습도 89%
기압 1015 hPa
시정 10km 이상
고도 1200ft 상공 구름 조금, 적란운.
고도 3000ft 상공 구름 많음
고도 22000ft 상공 구름 많음

METAR: MYNN 251000Z 00000KT 9999 FEW012CB BKN030 BKN220 24/22 A2996 RMK CB/LTG W

시각: 06:41 (10:41 UTC)

예보

예보는 12 시간 11분 전, 22:30시(UTC)에 발표되었습니다.
예보 대상 시간: 25일 00시부터 25일 24시까지 (UTC)
남남서6kt
시정 10km 이상
고도 2000ft 상공 구름 보통
고도 22000ft 상공 구름 많음
확률 30% :
일시적
25일 10시부터 25일 21시까지 (UTC)
남남서5kt, 순간 최대 풍속 15kt
시정: 8000m
고도 1800ft 상공 구름 조금, 적란운.
고도 3000ft 상공 구름 많음
소나기
전환 중
25일 20시부터 25일 22시까지 (UTC)
북북서5kt

TAF: MYNN 242230Z 2500/2524 20006KT 9999 SCT020 BKN220 PROB30 TEMPO 2510/2521 20005G15KT 8000 SHRA FEW018CB BKN030 BECMG 2520/2522 33005KT

4,000개 이상의 공항 관측 자료 및 예보 (METAR 및 TAF 보고).

지도상에서 검색 가능한 기상관측소가 노란 점과 빨간 점으로 표시되어 있습니다.

기상관측소 명을 보려면 표시 위로 마우스를 이동하세요.

날씨 관측과 예보를 보려면 클릭하세요.

지도 변경 : 확대하려면 엑스 표시가 있는 녹색 버튼, 축소하려면 빼기 표시가 있는 녹색 버튼, 다음 페이지의 지도를 보려면 녹색 화살표를 클릭하세요.


METAR-TAF: